Think Twice — SFC8871 — position and weather

sailwx.info

Track history (hours):
 
Tides and Currents Weather Stations Pressure Air Temp Water Temp Dewpoint Dewpoint Depression Visibility Wind Speed Wind Dir Waves Ship Positions

Think Twice

Last reported at 2018-May-07 15:09 UTC. Time now 2018-Aug-20 16:48 UTC.
Position N 14°16' W 060°56'.
Warning: this ship's position is months out of date.

Length 12 m.

Type: Sailing vessel. MMSI: 265629420.

Date/timePositionNaut miles runAvg speedWind from/ knotsBaromVisibWave heightAir tempDewpointWater temp
2018-May-07 15:09N 14°16' W 060°56'1 7.4
2018-May-07 14:58N 14°18' W 060°56'4 7.4
2018-May-07 14:30N 14°21' W 060°55'4 8.5
2018-May-07 14:00N 14°25' W 060°54'1 1.4
2018-May-07 13:25N 14°26' W 060°53'0 0.0
2018-May-07 12:58N 14°26' W 060°53'0 0.0
2018-May-07 12:28N 14°26' W 060°53'0 0.0
2018-May-07 11:58N 14°26' W 060°53'0 0.0
2018-May-07 11:28N 14°26' W 060°53'0 0.0
2018-May-07 10:58N 14°26' W 060°53'0 0.0
2018-May-07 10:28N 14°26' W 060°53'0 0.0
2018-May-07 09:58N 14°26' W 060°53'0 0.0
2018-May-07 09:28N 14°26' W 060°53'0 0.0
2018-May-07 08:55N 14°26' W 060°53'0 0.0
2018-May-07 08:28N 14°26' W 060°53'0 0.0
2018-May-07 07:58N 14°26' W 060°53'0 0.0
2018-May-07 07:28N 14°26' W 060°53'0 0.0
2018-May-07 06:58N 14°26' W 060°53'0 0.0
2018-May-07 06:28N 14°26' W 060°53'0 0.0
2018-May-07 05:25N 14°26' W 060°53'0 0.0
2018-May-07 04:58N 14°26' W 060°53'0 0.0
2018-May-07 04:28N 14°26' W 060°53'0 0.0
2018-May-07 03:58N 14°26' W 060°53'0 0.0
2018-May-07 03:28N 14°26' W 060°53'0 0.0
2018-May-07 02:58N 14°26' W 060°53'0 0.0
2018-May-07 02:28N 14°26' W 060°53'0 0.0
2018-May-07 01:55N 14°26' W 060°53'0 0.0
2018-May-07 01:25N 14°26' W 060°53'0 0.0
2018-May-07 00:34N 14°26' W 060°53'0 0.0
2018-May-07 00:25N 14°26' W 060°53'0 0.0
2018-May-06 21:01N 14°26' W 060°53'0 0.0
2018-May-06 20:40N 14°26' W 060°53'0 0.0
2018-May-06 20:19N 14°26' W 060°53'0 0.0
2018-May-06 19:46N 14°26' W 060°53'0 0.0
2018-May-06 18:46N 14°26' W 060°53'0 0.0
2018-May-06 18:19N 14°26' W 060°53'0 0.0
2018-May-06 17:31N 14°26' W 060°53'0 0.1
2018-May-06 17:28N 14°26' W 060°53'0 0.0
2018-May-06 16:52N 14°26' W 060°53'0 0.0
2018-May-06 16:13N 14°26' W 060°53'0 0.0
2018-May-06 15:40N 14°26' W 060°53'0 0.1
2018-May-06 15:21N 14°26' W 060°53'2 4.6
2018-May-06 14:56N 14°27' W 060°53'0 0.7
2018-May-06 14:19N 14°28' W 060°52'0 0.0
2018-May-06 13:52N 14°28' W 060°52'0 0.0
2018-May-06 12:58N 14°28' W 060°52'0 0.0
2018-May-06 12:22N 14°28' W 060°52'0 0.0
2018-May-06 11:52N 14°28' W 060°52'0 0.0
2018-May-06 11:16N 14°28' W 060°52'0 0.0
2018-May-06 08:04N 14°28' W 060°52'0 0.0
2018-May-06 07:52N 14°28' W 060°52'0 0.0
2018-May-06 07:04N 14°28' W 060°52'0 0.0
2018-May-06 06:52N 14°28' W 060°52'0 0.0
2018-May-06 06:28N 14°28' W 060°52'0 0.0
2018-May-06 05:58N 14°28' W 060°52'0 0.0
2018-May-06 05:25N 14°28' W 060°52'0 0.0
2018-May-06 04:58N 14°28' W 060°52'0 0.0
2018-May-06 04:28N 14°28' W 060°52'0 0.0
2018-May-06 03:58N 14°28' W 060°52'0 0.0
2018-May-06 03:28N 14°28' W 060°52'0 0.0
2018-May-06 02:58N 14°28' W 060°52'0 0.0
2018-May-06 02:28N 14°28' W 060°52'0 0.0
2018-May-06 01:58N 14°28' W 060°52'0 0.0
2018-May-06 01:28N 14°28' W 060°52'0 0.0
2018-May-06 00:58N 14°28' W 060°52'0 0.0
2018-May-06 00:28N 14°28' W 060°52'0 0.0
2018-May-05 23:58N 14°28' W 060°52'0 0.0
2018-May-05 23:28N 14°28' W 060°52'0 0.0
2018-May-05 22:58N 14°28' W 060°52'0 0.0
2018-May-05 22:28N 14°28' W 060°52'0 0.0
2018-May-05 21:58N 14°28' W 060°52'0 0.0
2018-May-05 21:25N 14°28' W 060°52'0 0.0
2018-May-05 20:58N 14°28' W 060°52'0 0.0
2018-May-05 20:28N 14°28' W 060°52'0 0.0
2018-May-05 19:58N 14°28' W 060°52'0 0.0
2018-May-05 19:28N 14°28' W 060°52'0 0.0
2018-May-05 18:58N 14°28' W 060°52'1 1.1
2018-May-05 18:29N 14°28' W 060°52'0 0.0
2018-May-05 17:59N 14°28' W 060°52'1 2.3
2018-May-05 17:30N 14°27' W 060°53'2 4.4
2018-May-05 17:00N 14°27' W 060°55'2 4.0
2018-May-05 16:30N 14°27' W 060°57'2 3.6
2018-May-05 16:00N 14°27' W 060°59'2 3.7
2018-May-05 15:30N 14°27' W 061°01'2 3.6
2018-May-05 14:58N 14°27' W 061°03'6 0.1
2018-May-03 18:20N 14°33' W 061°05'  
Track history (hours):
 
Tides and Currents Weather Stations Pressure Air Temp Water Temp Dewpoint Dewpoint Depression Visibility Wind Speed Wind Dir Waves Ship Positions

Think Twice

Last reported at 2018-May-07 15:09 UTC. Time now 2018-Aug-20 16:48 UTC.
Position N 14°16' W 060°56'.
Warning: this ship's position is months out of date.

Length 12 m.

Type: Sailing vessel. MMSI: 265629420.

Date/timePositionNaut miles runAvg speedWind from/ knotsBaromVisibWave heightAir tempDewpointWater temp
2018-May-07 15:09N 14°16' W 060°56'1 7.4
2018-May-07 14:58N 14°18' W 060°56'4 7.4
2018-May-07 14:30N 14°21' W 060°55'4 8.5
2018-May-07 14:00N 14°25' W 060°54'1 1.4
2018-May-07 13:25N 14°26' W 060°53'0 0.0
2018-May-07 12:58N 14°26' W 060°53'0 0.0
2018-May-07 12:28N 14°26' W 060°53'0 0.0
2018-May-07 11:58N 14°26' W 060°53'0 0.0
2018-May-07 11:28N 14°26' W 060°53'0 0.0
2018-May-07 10:58N 14°26' W 060°53'0 0.0
2018-May-07 10:28N 14°26' W 060°53'0 0.0
2018-May-07 09:58N 14°26' W 060°53'0 0.0
2018-May-07 09:28N 14°26' W 060°53'0 0.0
2018-May-07 08:55N 14°26' W 060°53'0 0.0
2018-May-07 08:28N 14°26' W 060°53'0 0.0
2018-May-07 07:58N 14°26' W 060°53'0 0.0
2018-May-07 07:28N 14°26' W 060°53'0 0.0
2018-May-07 06:58N 14°26' W 060°53'0 0.0
2018-May-07 06:28N 14°26' W 060°53'0 0.0
2018-May-07 05:25N 14°26' W 060°53'0 0.0
2018-May-07 04:58N 14°26' W 060°53'0 0.0
2018-May-07 04:28N 14°26' W 060°53'0 0.0
2018-May-07 03:58N 14°26' W 060°53'0 0.0
2018-May-07 03:28N 14°26' W 060°53'0 0.0
2018-May-07 02:58N 14°26' W 060°53'0 0.0
2018-May-07 02:28N 14°26' W 060°53'0 0.0
2018-May-07 01:55N 14°26' W 060°53'0 0.0
2018-May-07 01:25N 14°26' W 060°53'0 0.0
2018-May-07 00:34N 14°26' W 060°53'0 0.0
2018-May-07 00:25N 14°26' W 060°53'0 0.0
2018-May-06 21:01N 14°26' W 060°53'0 0.0
2018-May-06 20:40N 14°26' W 060°53'0 0.0
2018-May-06 20:19N 14°26' W 060°53'0 0.0
2018-May-06 19:46N 14°26' W 060°53'0 0.0
2018-May-06 18:46N 14°26' W 060°53'0 0.0
2018-May-06 18:19N 14°26' W 060°53'0 0.0
2018-May-06 17:31N 14°26' W 060°53'0 0.1
2018-May-06 17:28N 14°26' W 060°53'0 0.0
2018-May-06 16:52N 14°26' W 060°53'0 0.0
2018-May-06 16:13N 14°26' W 060°53'0 0.0
2018-May-06 15:40N 14°26' W 060°53'0 0.1
2018-May-06 15:21N 14°26' W 060°53'2 4.6
2018-May-06 14:56N 14°27' W 060°53'0 0.7
2018-May-06 14:19N 14°28' W 060°52'0 0.0
2018-May-06 13:52N 14°28' W 060°52'0 0.0
2018-May-06 12:58N 14°28' W 060°52'0 0.0
2018-May-06 12:22N 14°28' W 060°52'0 0.0
2018-May-06 11:52N 14°28' W 060°52'0 0.0
2018-May-06 11:16N 14°28' W 060°52'0 0.0
2018-May-06 08:04N 14°28' W 060°52'0 0.0
2018-May-06 07:52N 14°28' W 060°52'0 0.0
2018-May-06 07:04N 14°28' W 060°52'0 0.0
2018-May-06 06:52N 14°28' W 060°52'0 0.0
2018-May-06 06:28N 14°28' W 060°52'0 0.0
2018-May-06 05:58N 14°28' W 060°52'0 0.0
2018-May-06 05:25N 14°28' W 060°52'0 0.0
2018-May-06 04:58N 14°28' W 060°52'0 0.0
2018-May-06 04:28N 14°28' W 060°52'0 0.0
2018-May-06 03:58N 14°28' W 060°52'0 0.0
2018-May-06 03:28N 14°28' W 060°52'0 0.0
2018-May-06 02:58N 14°28' W 060°52'0 0.0
2018-May-06 02:28N 14°28' W 060°52'0 0.0
2018-May-06 01:58N 14°28' W 060°52'0 0.0
2018-May-06 01:28N 14°28' W 060°52'0 0.0
2018-May-06 00:58N 14°28' W 060°52'0 0.0
2018-May-06 00:28N 14°28' W 060°52'0 0.0
2018-May-05 23:58N 14°28' W 060°52'0 0.0
2018-May-05 23:28N 14°28' W 060°52'0 0.0
2018-May-05 22:58N 14°28' W 060°52'0 0.0
2018-May-05 22:28N 14°28' W 060°52'0 0.0
2018-May-05 21:58N 14°28' W 060°52'0 0.0
2018-May-05 21:25N 14°28' W 060°52'0 0.0
2018-May-05 20:58N 14°28' W 060°52'0 0.0
2018-May-05 20:28N 14°28' W 060°52'0 0.0
2018-May-05 19:58N 14°28' W 060°52'0 0.0
2018-May-05 19:28N 14°28' W 060°52'0 0.0
2018-May-05 18:58N 14°28' W 060°52'1 1.1
2018-May-05 18:29N 14°28' W 060°52'0 0.0
2018-May-05 17:59N 14°28' W 060°52'1 2.3
2018-May-05 17:30N 14°27' W 060°53'2 4.4
2018-May-05 17:00N 14°27' W 060°55'2 4.0
2018-May-05 16:30N 14°27' W 060°57'2 3.6
2018-May-05 16:00N 14°27' W 060°59'2 3.7
2018-May-05 15:30N 14°27' W 061°01'2 3.6
2018-May-05 14:58N 14°27' W 061°03'6 0.1
2018-May-03 18:20N 14°33' W 061°05'  

Dump ship's entire track history